sensor_id;sensor_type;location;lat;lon;timestamp;P1;durP1;ratioP1;P2;durP2;ratioP2
7737;SDS011;29398;45.328;5.558;2023-05-16T00:00:18;11.05;;;9.48;;
7737;SDS011;29398;45.328;5.558;2023-05-16T00:01:19;9.55;;;8.50;;
7737;SDS011;29398;45.328;5.558;2023-05-16T00:02:22;10.25;;;9.10;;
7737;SDS011;29398;45.328;5.558;2023-05-16T00:03:23;9.65;;;8.82;;
7737;SDS011;29398;45.328;5.558;2023-05-16T00:04:25;9.70;;;8.90;;
7737;SDS011;29398;45.328;5.558;2023-05-16T00:05:26;8.90;;;8.10;;
7737;SDS011;29398;45.328;5.558;2023-05-16T00:06:28;9.85;;;8.90;;
7737;SDS011;29398;45.328;5.558;2023-05-16T00:07:31;10.38;;;9.35;;
7737;SDS011;29398;45.328;5.558;2023-05-16T00:08:34;10.57;;;9.13;;
7737;SDS011;29398;45.328;5.558;2023-05-16T00:09:35;10.00;;;9.00;;
7737;SDS011;29398;45.328;5.558;2023-05-16T00:10:37;10.50;;;8.57;;
7737;SDS011;29398;45.328;5.558;2023-05-16T00:11:38;10.73;;;9.73;;
7737;SDS011;29398;45.328;5.558;2023-05-16T00:12:40;9.00;;;8.20;;
7737;SDS011;29398;45.328;5.558;2023-05-16T00:13:43;10.20;;;9.20;;
7737;SDS011;29398;45.328;5.558;2023-05-16T00:14:45;10.93;;;9.00;;
7737;SDS011;29398;45.328;5.558;2023-05-16T00:15:48;12.82;;;9.38;;
7737;SDS011;29398;45.328;5.558;2023-05-16T00:16:51;10.00;;;9.00;;
7737;SDS011;29398;45.328;5.558;2023-05-16T00:17:52;10.10;;;9.10;;
7737;SDS011;29398;45.328;5.558;2023-05-16T00:18:58;9.77;;;8.77;;
7737;SDS011;29398;45.328;5.558;2023-05-16T00:20:00;11.63;;;10.02;;
7737;SDS011;29398;45.328;5.558;2023-05-16T00:21:06;11.52;;;9.20;;
7737;SDS011;29398;45.328;5.558;2023-05-16T00:22:07;9.30;;;8.38;;
7737;SDS011;29398;45.328;5.558;2023-05-16T00:23:10;10.75;;;9.05;;
7737;SDS011;29398;45.328;5.558;2023-05-16T00:24:12;11.30;;;9.50;;
7737;SDS011;29398;45.328;5.558;2023-05-16T00:25:14;9.52;;;8.20;;
7737;SDS011;29398;45.328;5.558;2023-05-16T00:26:15;10.00;;;9.15;;
7737;SDS011;29398;45.328;5.558;2023-05-16T00:27:17;9.50;;;8.68;;
7737;SDS011;29398;45.328;5.558;2023-05-16T00:28:18;10.00;;;9.02;;
7737;SDS011;29398;45.328;5.558;2023-05-16T00:29:20;9.77;;;8.88;;
7737;SDS011;29398;45.328;5.558;2023-05-16T00:30:23;10.27;;;9.27;;
7737;SDS011;29398;45.328;5.558;2023-05-16T00:31:27;9.30;;;8.50;;
7737;SDS011;29398;45.328;5.558;2023-05-16T00:32:28;9.50;;;8.70;;
7737;SDS011;29398;45.328;5.558;2023-05-16T00:33:30;9.98;;;9.07;;
7737;SDS011;29398;45.328;5.558;2023-05-16T00:34:31;10.10;;;9.10;;
7737;SDS011;29398;45.328;5.558;2023-05-16T00:35:33;13.05;;;9.15;;
7737;SDS011;29398;45.328;5.558;2023-05-16T00:36:35;11.38;;;8.07;;
7737;SDS011;29398;45.328;5.558;2023-05-16T00:37:37;8.93;;;8.13;;
7737;SDS011;29398;45.328;5.558;2023-05-16T00:38:38;9.10;;;8.20;;
7737;SDS011;29398;45.328;5.558;2023-05-16T00:39:40;9.18;;;8.38;;
7737;SDS011;29398;45.328;5.558;2023-05-16T00:40:41;9.90;;;9.00;;
7737;SDS011;29398;45.328;5.558;2023-05-16T00:41:43;10.07;;;9.18;;
7737;SDS011;29398;45.328;5.558;2023-05-16T00:42:45;8.35;;;7.75;;
7737;SDS011;29398;45.328;5.558;2023-05-16T00:43:47;10.32;;;8.48;;
7737;SDS011;29398;45.328;5.558;2023-05-16T00:44:48;9.77;;;8.88;;
7737;SDS011;29398;45.328;5.558;2023-05-16T00:45:50;10.77;;;8.82;;
7737;SDS011;29398;45.328;5.558;2023-05-16T00:46:53;9.60;;;8.57;;
7737;SDS011;29398;45.328;5.558;2023-05-16T00:47:55;9.43;;;8.45;;
7737;SDS011;29398;45.328;5.558;2023-05-16T00:48:56;9.00;;;8.23;;
7737;SDS011;29398;45.328;5.558;2023-05-16T00:49:58;8.57;;;7.78;;
7737;SDS011;29398;45.328;5.558;2023-05-16T00:50:59;9.82;;;8.93;;
7737;SDS011;29398;45.328;5.558;2023-05-16T00:52:02;9.45;;;8.50;;
7737;SDS011;29398;45.328;5.558;2023-05-16T00:53:04;9.48;;;8.65;;
7737;SDS011;29398;45.328;5.558;2023-05-16T00:54:06;9.45;;;8.55;;
7737;SDS011;29398;45.328;5.558;2023-05-16T00:55:07;9.18;;;8.27;;
7737;SDS011;29398;45.328;5.558;2023-05-16T00:56:11;8.50;;;7.80;;
7737;SDS011;29398;45.328;5.558;2023-05-16T00:57:12;8.73;;;7.93;;
7737;SDS011;29398;45.328;5.558;2023-05-16T00:58:14;9.48;;;8.57;;
7737;SDS011;29398;45.328;5.558;2023-05-16T00:59:16;8.90;;;8.00;;
7737;SDS011;29398;45.328;5.558;2023-05-16T01:00:18;9.73;;;8.82;;
7737;SDS011;29398;45.328;5.558;2023-05-16T01:01:20;8.55;;;7.85;;
7737;SDS011;29398;45.328;5.558;2023-05-16T01:02:27;8.80;;;8.00;;
7737;SDS011;29398;45.328;5.558;2023-05-16T01:03:28;9.65;;;8.65;;
7737;SDS011;29398;45.328;5.558;2023-05-16T01:04:30;10.48;;;8.82;;
7737;SDS011;29398;45.328;5.558;2023-05-16T01:05:34;7.93;;;7.22;;
7737;SDS011;29398;45.328;5.558;2023-05-16T01:06:36;9.05;;;8.10;;
7737;SDS011;29398;45.328;5.558;2023-05-16T01:07:39;8.40;;;7.70;;
7737;SDS011;29398;45.328;5.558;2023-05-16T01:08:41;8.63;;;7.93;;
7737;SDS011;29398;45.328;5.558;2023-05-16T01:09:42;9.52;;;8.63;;
7737;SDS011;29398;45.328;5.558;2023-05-16T01:10:47;7.75;;;7.05;;
7737;SDS011;29398;45.328;5.558;2023-05-16T01:11:55;9.48;;;8.13;;
7737;SDS011;29398;45.328;5.558;2023-05-16T01:13:05;9.40;;;8.55;;
7737;SDS011;29398;45.328;5.558;2023-05-16T01:14:11;10.77;;;8.63;;
7737;SDS011;29398;45.328;5.558;2023-05-16T01:15:19;9.50;;;8.60;;
7737;SDS011;29398;45.328;5.558;2023-05-16T01:16:25;8.68;;;7.97;;
7737;SDS011;29398;45.328;5.558;2023-05-16T01:17:37;9.38;;;8.48;;
7737;SDS011;29398;45.328;5.558;2023-05-16T01:18:51;9.02;;;8.30;;
7737;SDS011;29398;45.328;5.558;2023-05-16T01:20:02;9.23;;;8.32;;
7737;SDS011;29398;45.328;5.558;2023-05-16T01:21:11;9.48;;;8.48;;
7737;SDS011;29398;45.328;5.558;2023-05-16T01:22:26;8.70;;;8.00;;
7737;SDS011;29398;45.328;5.558;2023-05-16T01:23:33;10.40;;;9.43;;
7737;SDS011;29398;45.328;5.558;2023-05-16T01:24:49;8.85;;;8.05;;
7737;SDS011;29398;45.328;5.558;2023-05-16T01:26:13;11.23;;;8.75;;
7737;SDS011;29398;45.328;5.558;2023-05-16T01:27:16;9.80;;;9.00;;
7737;SDS011;29398;45.328;5.558;2023-05-16T01:28:20;9.30;;;8.50;;
7737;SDS011;29398;45.328;5.558;2023-05-16T01:29:23;10.07;;;9.07;;
7737;SDS011;29398;45.328;5.558;2023-05-16T01:30:26;13.10;;;9.25;;
7737;SDS011;29398;45.328;5.558;2023-05-16T01:31:31;9.27;;;8.48;;
7737;SDS011;29398;45.328;5.558;2023-05-16T01:32:33;11.10;;;8.73;;
7737;SDS011;29398;45.328;5.558;2023-05-16T01:33:36;10.82;;;9.65;;
7737;SDS011;29398;45.328;5.558;2023-05-16T01:34:38;9.48;;;8.68;;
7737;SDS011;29398;45.328;5.558;2023-05-16T01:35:46;16.00;;;9.77;;
7737;SDS011;29398;45.328;5.558;2023-05-16T01:36:59;9.68;;;8.68;;
7737;SDS011;29398;45.328;5.558;2023-05-16T01:38:08;9.68;;;8.77;;
7737;SDS011;29398;45.328;5.558;2023-05-16T01:39:19;9.75;;;8.90;;
7737;SDS011;29398;45.328;5.558;2023-05-16T01:40:28;8.98;;;8.07;;
7737;SDS011;29398;45.328;5.558;2023-05-16T01:41:40;9.82;;;8.90;;
7737;SDS011;29398;45.328;5.558;2023-05-16T01:42:49;9.88;;;8.88;;
7737;SDS011;29398;45.328;5.558;2023-05-16T01:43:56;9.50;;;8.70;;
7737;SDS011;29398;45.328;5.558;2023-05-16T01:45:04;9.23;;;8.43;;
7737;SDS011;29398;45.328;5.558;2023-05-16T01:46:13;10.90;;;9.90;;
7737;SDS011;29398;45.328;5.558;2023-05-16T01:47:16;9.98;;;8.93;;
7737;SDS011;29398;45.328;5.558;2023-05-16T01:48:21;9.38;;;8.50;;
7737;SDS011;29398;45.328;5.558;2023-05-16T01:49:29;10.82;;;9.70;;
7737;SDS011;29398;45.328;5.558;2023-05-16T01:50:35;9.65;;;8.65;;
7737;SDS011;29398;45.328;5.558;2023-05-16T01:51:40;10.10;;;8.98;;
7737;SDS011;29398;45.328;5.558;2023-05-16T01:52:43;8.85;;;8.02;;
7737;SDS011;29398;45.328;5.558;2023-05-16T01:54:03;9.27;;;8.48;;
7737;SDS011;29398;45.328;5.558;2023-05-16T01:55:09;9.40;;;8.60;;
7737;SDS011;29398;45.328;5.558;2023-05-16T01:56:16;9.60;;;8.43;;
7737;SDS011;29398;45.328;5.558;2023-05-16T01:57:19;10.02;;;9.13;;
7737;SDS011;29398;45.328;5.558;2023-05-16T01:58:27;8.80;;;8.00;;
7737;SDS011;29398;45.328;5.558;2023-05-16T01:59:32;10.13;;;9.02;;
7737;SDS011;29398;45.328;5.558;2023-05-16T02:00:35;9.40;;;8.50;;
7737;SDS011;29398;45.328;5.558;2023-05-16T02:01:36;10.07;;;9.13;;
7737;SDS011;29398;45.328;5.558;2023-05-16T02:02:38;10.13;;;9.13;;
7737;SDS011;29398;45.328;5.558;2023-05-16T02:03:39;9.27;;;8.48;;
7737;SDS011;29398;45.328;5.558;2023-05-16T02:04:41;9.48;;;8.60;;
7737;SDS011;29398;45.328;5.558;2023-05-16T02:05:42;9.00;;;8.10;;
7737;SDS011;29398;45.328;5.558;2023-05-16T02:06:47;10.35;;;9.35;;
7737;SDS011;29398;45.328;5.558;2023-05-16T02:07:50;9.45;;;8.60;;
7737;SDS011;29398;45.328;5.558;2023-05-16T02:08:52;10.68;;;9.57;;
7737;SDS011;29398;45.328;5.558;2023-05-16T02:09:54;9.52;;;8.73;;
7737;SDS011;29398;45.328;5.558;2023-05-16T02:10:55;11.05;;;8.32;;
7737;SDS011;29398;45.328;5.558;2023-05-16T02:11:57;9.65;;;8.75;;
7737;SDS011;29398;45.328;5.558;2023-05-16T02:13:01;9.68;;;8.77;;
7737;SDS011;29398;45.328;5.558;2023-05-16T02:14:03;9.70;;;8.77;;
7737;SDS011;29398;45.328;5.558;2023-05-16T02:15:04;9.23;;;8.25;;
7737;SDS011;29398;45.328;5.558;2023-05-16T02:16:09;10.23;;;9.20;;
7737;SDS011;29398;45.328;5.558;2023-05-16T02:17:10;10.00;;;8.73;;
7737;SDS011;29398;45.328;5.558;2023-05-16T02:18:12;10.13;;;9.13;;
7737;SDS011;29398;45.328;5.558;2023-05-16T02:19:13;9.50;;;8.70;;
7737;SDS011;29398;45.328;5.558;2023-05-16T02:20:15;10.02;;;9.07;;
7737;SDS011;29398;45.328;5.558;2023-05-16T02:21:16;10.57;;;9.40;;
7737;SDS011;29398;45.328;5.558;2023-05-16T02:22:18;10.18;;;9.13;;
7737;SDS011;29398;45.328;5.558;2023-05-16T02:23:19;10.43;;;9.07;;
7737;SDS011;29398;45.328;5.558;2023-05-16T02:24:21;10.73;;;9.63;;
7737;SDS011;29398;45.328;5.558;2023-05-16T02:25:23;9.32;;;8.43;;
7737;SDS011;29398;45.328;5.558;2023-05-16T02:26:25;10.65;;;9.38;;
7737;SDS011;29398;45.328;5.558;2023-05-16T02:27:26;10.55;;;9.43;;
7737;SDS011;29398;45.328;5.558;2023-05-16T02:28:29;10.65;;;9.60;;
7737;SDS011;29398;45.328;5.558;2023-05-16T02:29:31;10.15;;;8.73;;
7737;SDS011;29398;45.328;5.558;2023-05-16T02:30:33;9.88;;;8.98;;
7737;SDS011;29398;45.328;5.558;2023-05-16T02:31:34;10.48;;;9.43;;
7737;SDS011;29398;45.328;5.558;2023-05-16T02:32:36;9.27;;;8.38;;
7737;SDS011;29398;45.328;5.558;2023-05-16T02:33:37;11.50;;;9.32;;
7737;SDS011;29398;45.328;5.558;2023-05-16T02:34:42;10.38;;;9.35;;
7737;SDS011;29398;45.328;5.558;2023-05-16T02:35:43;9.70;;;8.85;;
7737;SDS011;29398;45.328;5.558;2023-05-16T02:36:45;9.77;;;8.88;;
7737;SDS011;29398;45.328;5.558;2023-05-16T02:37:46;10.70;;;9.57;;
7737;SDS011;29398;45.328;5.558;2023-05-16T02:38:48;10.23;;;8.77;;
7737;SDS011;29398;45.328;5.558;2023-05-16T02:39:49;10.95;;;9.82;;
7737;SDS011;29398;45.328;5.558;2023-05-16T02:40:51;10.63;;;9.45;;
7737;SDS011;29398;45.328;5.558;2023-05-16T02:41:52;11.18;;;10.07;;
7737;SDS011;29398;45.328;5.558;2023-05-16T02:42:54;13.50;;;10.13;;
7737;SDS011;29398;45.328;5.558;2023-05-16T02:43:57;11.60;;;9.70;;
7737;SDS011;29398;45.328;5.558;2023-05-16T02:44:59;10.68;;;9.60;;
7737;SDS011;29398;45.328;5.558;2023-05-16T02:46:00;10.80;;;9.70;;
7737;SDS011;29398;45.328;5.558;2023-05-16T02:47:05;10.02;;;9.02;;
7737;SDS011;29398;45.328;5.558;2023-05-16T02:48:06;11.20;;;10.07;;
7737;SDS011;29398;45.328;5.558;2023-05-16T02:49:08;10.27;;;9.13;;
7737;SDS011;29398;45.328;5.558;2023-05-16T02:50:12;12.27;;;9.68;;
7737;SDS011;29398;45.328;5.558;2023-05-16T02:51:13;11.07;;;9.98;;
7737;SDS011;29398;45.328;5.558;2023-05-16T02:52:15;9.77;;;8.77;;
7737;SDS011;29398;45.328;5.558;2023-05-16T02:53:16;10.50;;;9.40;;
7737;SDS011;29398;45.328;5.558;2023-05-16T02:54:18;10.95;;;9.48;;
7737;SDS011;29398;45.328;5.558;2023-05-16T02:55:19;10.43;;;9.35;;
7737;SDS011;29398;45.328;5.558;2023-05-16T02:56:21;10.75;;;8.23;;
7737;SDS011;29398;45.328;5.558;2023-05-16T02:57:23;11.07;;;9.32;;
7737;SDS011;29398;45.328;5.558;2023-05-16T02:58:25;11.90;;;9.93;;
7737;SDS011;29398;45.328;5.558;2023-05-16T02:59:27;10.77;;;9.52;;
7737;SDS011;29398;45.328;5.558;2023-05-16T03:00:29;10.35;;;9.43;;
7737;SDS011;29398;45.328;5.558;2023-05-16T03:01:30;10.45;;;9.40;;
7737;SDS011;29398;45.328;5.558;2023-05-16T03:02:33;9.95;;;9.05;;
7737;SDS011;29398;45.328;5.558;2023-05-16T03:03:34;11.93;;;10.32;;
7737;SDS011;29398;45.328;5.558;2023-05-16T03:04:37;11.55;;;10.02;;
7737;SDS011;29398;45.328;5.558;2023-05-16T03:05:38;11.68;;;10.57;;
7737;SDS011;29398;45.328;5.558;2023-05-16T03:06:40;10.90;;;9.80;;
7737;SDS011;29398;45.328;5.558;2023-05-16T03:07:41;11.45;;;10.35;;
7737;SDS011;29398;45.328;5.558;2023-05-16T03:08:43;10.68;;;9.50;;
7737;SDS011;29398;45.328;5.558;2023-05-16T03:09:44;12.05;;;10.75;;
7737;SDS011;29398;45.328;5.558;2023-05-16T03:10:46;10.98;;;9.93;;
7737;SDS011;29398;45.328;5.558;2023-05-16T03:11:47;11.77;;;10.68;;
7737;SDS011;29398;45.328;5.558;2023-05-16T03:12:53;11.45;;;9.73;;
7737;SDS011;29398;45.328;5.558;2023-05-16T03:13:54;12.15;;;10.20;;
7737;SDS011;29398;45.328;5.558;2023-05-16T03:14:59;11.35;;;9.80;;
7737;SDS011;29398;45.328;5.558;2023-05-16T03:16:00;11.00;;;9.93;;
7737;SDS011;29398;45.328;5.558;2023-05-16T03:17:03;11.55;;;10.10;;
7737;SDS011;29398;45.328;5.558;2023-05-16T03:18:04;11.23;;;10.18;;
7737;SDS011;29398;45.328;5.558;2023-05-16T03:19:06;11.38;;;10.27;;
7737;SDS011;29398;45.328;5.558;2023-05-16T03:20:07;13.57;;;11.00;;
7737;SDS011;29398;45.328;5.558;2023-05-16T03:21:10;12.30;;;10.18;;
7737;SDS011;29398;45.328;5.558;2023-05-16T03:22:12;11.57;;;10.48;;
7737;SDS011;29398;45.328;5.558;2023-05-16T03:23:16;11.23;;;10.02;;
7737;SDS011;29398;45.328;5.558;2023-05-16T03:24:17;14.05;;;11.73;;
7737;SDS011;29398;45.328;5.558;2023-05-16T03:25:22;11.20;;;9.90;;
7737;SDS011;29398;45.328;5.558;2023-05-16T03:26:23;15.20;;;11.00;;
7737;SDS011;29398;45.328;5.558;2023-05-16T03:27:25;12.90;;;10.80;;
7737;SDS011;29398;45.328;5.558;2023-05-16T03:28:27;10.32;;;9.32;;
7737;SDS011;29398;45.328;5.558;2023-05-16T03:29:29;12.07;;;10.88;;
7737;SDS011;29398;45.328;5.558;2023-05-16T03:30:31;12.23;;;11.02;;
7737;SDS011;29398;45.328;5.558;2023-05-16T03:31:33;11.73;;;10.55;;
7737;SDS011;29398;45.328;5.558;2023-05-16T03:32:36;13.05;;;11.13;;
7737;SDS011;29398;45.328;5.558;2023-05-16T03:33:38;12.05;;;10.23;;
7737;SDS011;29398;45.328;5.558;2023-05-16T03:34:39;13.00;;;11.27;;
7737;SDS011;29398;45.328;5.558;2023-05-16T03:35:41;13.45;;;11.00;;
7737;SDS011;29398;45.328;5.558;2023-05-16T03:36:43;13.90;;;11.25;;
7737;SDS011;29398;45.328;5.558;2023-05-16T03:37:45;13.40;;;11.38;;
7737;SDS011;29398;45.328;5.558;2023-05-16T03:38:46;12.73;;;10.50;;
7737;SDS011;29398;45.328;5.558;2023-05-16T03:39:49;12.20;;;10.82;;
7737;SDS011;29398;45.328;5.558;2023-05-16T03:40:50;12.18;;;10.80;;
7737;SDS011;29398;45.328;5.558;2023-05-16T03:41:52;12.25;;;11.05;;
7737;SDS011;29398;45.328;5.558;2023-05-16T03:42:55;12.32;;;11.13;;
7737;SDS011;29398;45.328;5.558;2023-05-16T03:43:57;14.00;;;11.63;;
7737;SDS011;29398;45.328;5.558;2023-05-16T03:44:58;11.98;;;10.75;;
7737;SDS011;29398;45.328;5.558;2023-05-16T03:46:02;11.73;;;10.38;;
7737;SDS011;29398;45.328;5.558;2023-05-16T03:47:03;13.30;;;11.38;;
7737;SDS011;29398;45.328;5.558;2023-05-16T03:48:05;12.82;;;11.13;;
7737;SDS011;29398;45.328;5.558;2023-05-16T03:49:08;16.88;;;11.73;;
7737;SDS011;29398;45.328;5.558;2023-05-16T03:50:10;12.77;;;11.05;;
7737;SDS011;29398;45.328;5.558;2023-05-16T03:51:11;13.10;;;11.40;;
7737;SDS011;29398;45.328;5.558;2023-05-16T03:52:13;12.93;;;10.73;;
7737;SDS011;29398;45.328;5.558;2023-05-16T03:53:15;12.98;;;11.57;;
7737;SDS011;29398;45.328;5.558;2023-05-16T03:54:17;12.43;;;11.13;;
7737;SDS011;29398;45.328;5.558;2023-05-16T03:55:18;11.73;;;10.48;;
7737;SDS011;29398;45.328;5.558;2023-05-16T03:56:20;12.57;;;11.27;;
7737;SDS011;29398;45.328;5.558;2023-05-16T03:57:21;12.63;;;10.55;;
7737;SDS011;29398;45.328;5.558;2023-05-16T03:58:23;16.42;;;11.63;;
7737;SDS011;29398;45.328;5.558;2023-05-16T03:59:24;14.63;;;11.48;;
7737;SDS011;29398;45.328;5.558;2023-05-16T04:00:27;13.05;;;11.65;;
7737;SDS011;29398;45.328;5.558;2023-05-16T04:01:29;12.05;;;10.82;;
7737;SDS011;29398;45.328;5.558;2023-05-16T04:02:31;13.82;;;11.70;;
7737;SDS011;29398;45.328;5.558;2023-05-16T04:03:32;12.73;;;10.82;;
7737;SDS011;29398;45.328;5.558;2023-05-16T04:04:35;12.57;;;11.23;;
7737;SDS011;29398;45.328;5.558;2023-05-16T04:05:36;11.13;;;9.77;;
7737;SDS011;29398;45.328;5.558;2023-05-16T04:06:38;11.70;;;10.52;;
7737;SDS011;29398;45.328;5.558;2023-05-16T04:07:39;18.35;;;11.52;;
7737;SDS011;29398;45.328;5.558;2023-05-16T04:08:41;14.68;;;11.80;;
7737;SDS011;29398;45.328;5.558;2023-05-16T04:09:44;12.60;;;11.30;;
7737;SDS011;29398;45.328;5.558;2023-05-16T04:10:45;12.48;;;11.05;;
7737;SDS011;29398;45.328;5.558;2023-05-16T04:11:47;13.27;;;11.88;;
7737;SDS011;29398;45.328;5.558;2023-05-16T04:12:48;11.82;;;10.55;;
7737;SDS011;29398;45.328;5.558;2023-05-16T04:13:50;13.43;;;12.02;;
7737;SDS011;29398;45.328;5.558;2023-05-16T04:14:53;13.32;;;12.02;;
7737;SDS011;29398;45.328;5.558;2023-05-16T04:15:55;13.30;;;11.93;;
7737;SDS011;29398;45.328;5.558;2023-05-16T04:16:57;12.82;;;10.68;;
7737;SDS011;29398;45.328;5.558;2023-05-16T04:18:00;11.73;;;10.50;;
7737;SDS011;29398;45.328;5.558;2023-05-16T04:19:01;14.88;;;12.18;;
7737;SDS011;29398;45.328;5.558;2023-05-16T04:20:04;12.15;;;10.77;;
7737;SDS011;29398;45.328;5.558;2023-05-16T04:21:06;16.85;;;13.20;;
7737;SDS011;29398;45.328;5.558;2023-05-16T04:22:10;15.15;;;12.68;;
7737;SDS011;29398;45.328;5.558;2023-05-16T04:23:11;12.85;;;11.55;;
7737;SDS011;29398;45.328;5.558;2023-05-16T04:24:13;13.02;;;11.68;;
7737;SDS011;29398;45.328;5.558;2023-05-16T04:25:14;12.40;;;11.20;;
7737;SDS011;29398;45.328;5.558;2023-05-16T04:26:16;13.95;;;12.45;;
7737;SDS011;29398;45.328;5.558;2023-05-16T04:27:17;13.15;;;11.73;;
7737;SDS011;29398;45.328;5.558;2023-05-16T04:28:19;14.10;;;11.82;;
7737;SDS011;29398;45.328;5.558;2023-05-16T04:29:20;14.50;;;12.90;;
7737;SDS011;29398;45.328;5.558;2023-05-16T04:30:22;14.35;;;12.30;;
7737;SDS011;29398;45.328;5.558;2023-05-16T04:31:24;14.68;;;12.45;;
7737;SDS011;29398;45.328;5.558;2023-05-16T04:32:27;13.50;;;11.95;;
7737;SDS011;29398;45.328;5.558;2023-05-16T04:33:28;16.13;;;13.07;;
7737;SDS011;29398;45.328;5.558;2023-05-16T04:34:30;13.15;;;11.75;;
7737;SDS011;29398;45.328;5.558;2023-05-16T04:35:33;13.45;;;12.07;;
7737;SDS011;29398;45.328;5.558;2023-05-16T04:36:36;15.57;;;12.32;;
7737;SDS011;29398;45.328;5.558;2023-05-16T04:37:38;13.55;;;12.13;;
7737;SDS011;29398;45.328;5.558;2023-05-16T04:38:40;14.73;;;12.55;;
7737;SDS011;29398;45.328;5.558;2023-05-16T04:39:42;14.63;;;12.32;;
7737;SDS011;29398;45.328;5.558;2023-05-16T04:40:44;12.98;;;11.55;;
7737;SDS011;29398;45.328;5.558;2023-05-16T04:41:45;14.30;;;12.25;;
7737;SDS011;29398;45.328;5.558;2023-05-16T04:42:47;14.30;;;12.38;;
7737;SDS011;29398;45.328;5.558;2023-05-16T04:43:48;15.15;;;12.80;;
7737;SDS011;29398;45.328;5.558;2023-05-16T04:44:51;14.10;;;12.18;;
7737;SDS011;29398;45.328;5.558;2023-05-16T04:45:52;15.80;;;12.27;;
7737;SDS011;29398;45.328;5.558;2023-05-16T04:46:55;14.95;;;13.23;;
7737;SDS011;29398;45.328;5.558;2023-05-16T04:47:57;16.52;;;12.93;;
7737;SDS011;29398;45.328;5.558;2023-05-16T04:48:59;15.93;;;13.07;;
7737;SDS011;29398;45.328;5.558;2023-05-16T04:50:00;16.45;;;12.38;;
7737;SDS011;29398;45.328;5.558;2023-05-16T04:51:03;16.15;;;12.88;;
7737;SDS011;29398;45.328;5.558;2023-05-16T04:52:04;14.60;;;12.85;;
7737;SDS011;29398;45.328;5.558;2023-05-16T04:53:07;15.98;;;13.50;;
7737;SDS011;29398;45.328;5.558;2023-05-16T04:54:09;18.15;;;12.77;;
7737;SDS011;29398;45.328;5.558;2023-05-16T04:55:11;15.45;;;13.00;;
7737;SDS011;29398;45.328;5.558;2023-05-16T04:56:12;14.18;;;12.25;;
7737;SDS011;29398;45.328;5.558;2023-05-16T04:57:14;15.13;;;13.45;;
7737;SDS011;29398;45.328;5.558;2023-05-16T04:58:15;17.30;;;13.73;;
7737;SDS011;29398;45.328;5.558;2023-05-16T04:59:17;16.38;;;13.73;;
7737;SDS011;29398;45.328;5.558;2023-05-16T05:00:18;15.43;;;13.05;;
7737;SDS011;29398;45.328;5.558;2023-05-16T05:01:21;14.20;;;12.70;;
7737;SDS011;29398;45.328;5.558;2023-05-16T05:02:22;15.38;;;12.90;;
7737;SDS011;29398;45.328;5.558;2023-05-16T05:03:25;13.50;;;12.10;;
7737;SDS011;29398;45.328;5.558;2023-05-16T05:04:27;17.95;;;13.07;;
7737;SDS011;29398;45.328;5.558;2023-05-16T05:05:29;17.58;;;13.60;;
7737;SDS011;29398;45.328;5.558;2023-05-16T05:06:30;16.80;;;14.27;;
7737;SDS011;29398;45.328;5.558;2023-05-16T05:07:32;17.00;;;14.57;;
7737;SDS011;29398;45.328;5.558;2023-05-16T05:08:33;17.55;;;13.65;;
7737;SDS011;29398;45.328;5.558;2023-05-16T05:09:35;16.17;;;12.98;;
7737;SDS011;29398;45.328;5.558;2023-05-16T05:10:36;15.93;;;13.25;;
7737;SDS011;29398;45.328;5.558;2023-05-16T05:11:38;15.52;;;13.75;;
7737;SDS011;29398;45.328;5.558;2023-05-16T05:12:40;18.42;;;14.27;;
7737;SDS011;29398;45.328;5.558;2023-05-16T05:13:42;16.75;;;13.10;;
7737;SDS011;29398;45.328;5.558;2023-05-16T05:14:43;15.68;;;13.27;;
7737;SDS011;29398;45.328;5.558;2023-05-16T05:15:45;16.15;;;14.02;;
7737;SDS011;29398;45.328;5.558;2023-05-16T05:16:46;16.73;;;13.52;;
7737;SDS011;29398;45.328;5.558;2023-05-16T05:17:48;17.23;;;13.90;;
7737;SDS011;29398;45.328;5.558;2023-05-16T05:18:50;17.02;;;12.73;;
7737;SDS011;29398;45.328;5.558;2023-05-16T05:19:52;17.73;;;13.73;;
7737;SDS011;29398;45.328;5.558;2023-05-16T05:20:54;15.07;;;13.00;;
7737;SDS011;29398;45.328;5.558;2023-05-16T05:21:56;18.75;;;13.57;;
7737;SDS011;29398;45.328;5.558;2023-05-16T05:22:57;15.93;;;13.57;;
7737;SDS011;29398;45.328;5.558;2023-05-16T05:23:59;14.63;;;12.88;;
7737;SDS011;29398;45.328;5.558;2023-05-16T05:25:00;14.68;;;13.10;;
7737;SDS011;29398;45.328;5.558;2023-05-16T05:26:02;16.27;;;13.15;;
7737;SDS011;29398;45.328;5.558;2023-05-16T05:27:04;17.60;;;12.60;;
7737;SDS011;29398;45.328;5.558;2023-05-16T05:28:06;16.55;;;12.93;;
7737;SDS011;29398;45.328;5.558;2023-05-16T05:29:07;14.88;;;12.90;;
7737;SDS011;29398;45.328;5.558;2023-05-16T05:30:10;15.02;;;13.00;;
7737;SDS011;29398;45.328;5.558;2023-05-16T05:31:11;17.33;;;14.10;;
7737;SDS011;29398;45.328;5.558;2023-05-16T05:32:13;17.67;;;13.73;;
7737;SDS011;29398;45.328;5.558;2023-05-16T05:33:15;16.58;;;13.25;;
7737;SDS011;29398;45.328;5.558;2023-05-16T05:34:19;15.48;;;12.30;;
7737;SDS011;29398;45.328;5.558;2023-05-16T05:35:21;15.63;;;13.45;;
7737;SDS011;29398;45.328;5.558;2023-05-16T05:36:22;15.05;;;13.32;;
7737;SDS011;29398;45.328;5.558;2023-05-16T05:37:25;14.05;;;12.50;;
7737;SDS011;29398;45.328;5.558;2023-05-16T05:38:26;14.07;;;12.57;;
7737;SDS011;29398;45.328;5.558;2023-05-16T05:39:28;13.75;;;11.35;;
7737;SDS011;29398;45.328;5.558;2023-05-16T05:40:29;15.55;;;12.63;;
7737;SDS011;29398;45.328;5.558;2023-05-16T05:41:31;18.40;;;12.30;;
7737;SDS011;29398;45.328;5.558;2023-05-16T05:42:32;14.73;;;12.60;;
7737;SDS011;29398;45.328;5.558;2023-05-16T05:43:34;19.08;;;13.00;;
7737;SDS011;29398;45.328;5.558;2023-05-16T05:44:36;13.02;;;11.73;;
7737;SDS011;29398;45.328;5.558;2023-05-16T05:45:38;16.67;;;13.60;;
7737;SDS011;29398;45.328;5.558;2023-05-16T05:46:39;16.55;;;12.98;;
7737;SDS011;29398;45.328;5.558;2023-05-16T05:47:41;14.80;;;12.18;;
7737;SDS011;29398;45.328;5.558;2023-05-16T05:48:43;20.05;;;13.45;;
7737;SDS011;29398;45.328;5.558;2023-05-16T05:49:47;15.05;;;12.80;;
7737;SDS011;29398;45.328;5.558;2023-05-16T05:50:48;14.15;;;12.68;;
7737;SDS011;29398;45.328;5.558;2023-05-16T05:51:51;14.18;;;12.38;;
7737;SDS011;29398;45.328;5.558;2023-05-16T05:52:53;16.38;;;13.07;;
7737;SDS011;29398;45.328;5.558;2023-05-16T05:53:56;13.68;;;12.25;;
7737;SDS011;29398;45.328;5.558;2023-05-16T05:54:57;16.38;;;13.38;;
7737;SDS011;29398;45.328;5.558;2023-05-16T05:55:59;16.63;;;12.68;;
7737;SDS011;29398;45.328;5.558;2023-05-16T05:57:00;15.38;;;12.68;;
7737;SDS011;29398;45.328;5.558;2023-05-16T05:58:02;15.93;;;12.52;;
7737;SDS011;29398;45.328;5.558;2023-05-16T05:59:03;15.32;;;12.32;;
7737;SDS011;29398;45.328;5.558;2023-05-16T06:00:06;18.65;;;13.23;;
7737;SDS011;29398;45.328;5.558;2023-05-16T06:01:10;16.63;;;13.80;;
7737;SDS011;29398;45.328;5.558;2023-05-16T06:02:12;20.02;;;13.27;;
7737;SDS011;29398;45.328;5.558;2023-05-16T06:03:13;17.55;;;13.55;;
7737;SDS011;29398;45.328;5.558;2023-05-16T06:04:16;13.48;;;10.85;;
7737;SDS011;29398;45.328;5.558;2023-05-16T06:05:18;15.43;;;12.50;;
7737;SDS011;29398;45.328;5.558;2023-05-16T06:06:20;14.77;;;12.82;;
7737;SDS011;29398;45.328;5.558;2023-05-16T06:07:23;13.60;;;11.93;;
7737;SDS011;29398;45.328;5.558;2023-05-16T06:08:24;15.20;;;12.55;;
7737;SDS011;29398;45.328;5.558;2023-05-16T06:09:26;15.80;;;12.57;;
7737;SDS011;29398;45.328;5.558;2023-05-16T06:10:27;16.02;;;13.63;;
7737;SDS011;29398;45.328;5.558;2023-05-16T06:11:29;17.58;;;13.20;;
7737;SDS011;29398;45.328;5.558;2023-05-16T06:12:31;15.25;;;13.10;;
7737;SDS011;29398;45.328;5.558;2023-05-16T06:13:33;18.10;;;13.70;;
7737;SDS011;29398;45.328;5.558;2023-05-16T06:14:34;15.60;;;13.02;;
7737;SDS011;29398;45.328;5.558;2023-05-16T06:15:36;16.23;;;13.25;;